createdAt,value
2022-09-27T00:00:31.382Z,97634.94
2022-09-27T00:02:58.122Z,97629.97
2022-09-27T00:05:24.631Z,97628.31
2022-09-27T00:07:51.178Z,97625.00
2022-09-27T00:10:17.779Z,97627.81
2022-09-27T00:12:44.348Z,97635.88
2022-09-27T00:15:11.032Z,97628.97
2022-09-27T00:17:38.895Z,97634.41
2022-09-27T00:20:07.499Z,97630.91
2022-09-27T00:22:34.630Z,97636.19
2022-09-27T00:25:01.211Z,97637.19
2022-09-27T00:27:28.013Z,97633.75
2022-09-27T00:29:54.593Z,97639.03
2022-09-27T00:32:21.294Z,97642.78
2022-09-27T00:34:47.792Z,97635.72
2022-09-27T00:37:14.313Z,97639.34
2022-09-27T00:39:40.859Z,97640.34
2022-09-27T00:42:11.955Z,97641.50
2022-09-27T00:44:38.752Z,97638.84
2022-09-27T00:47:25.188Z,97641.09
2022-09-27T00:50:00.137Z,97644.44
2022-09-27T00:52:32.531Z,97636.50
2022-09-27T00:55:04.625Z,97639.31
2022-09-27T00:57:31.400Z,97648.06
2022-09-27T01:00:12.223Z,97642.56
2022-09-27T01:02:42.954Z,97642.38
2022-09-27T01:05:12.508Z,97641.72
2022-09-27T01:07:39.013Z,97636.44
2022-09-27T01:10:07.254Z,97634.78
2022-09-27T01:13:06.683Z,97649.31
2022-09-27T01:15:51.316Z,97650.94
2022-09-27T01:18:42.151Z,97647.47
2022-09-27T01:21:41.678Z,97654.75
2022-09-27T01:24:31.295Z,97652.25
2022-09-27T01:27:23.923Z,97659.34
2022-09-27T01:30:13.390Z,97649.31
2022-09-27T01:33:05.135Z,97655.19
2022-09-27T01:35:43.794Z,97649.75
2022-09-27T01:38:18.400Z,97658.84
2022-09-27T01:40:57.828Z,97657.19
2022-09-27T01:43:34.380Z,97656.19
2022-09-27T01:46:21.389Z,97667.91
2022-09-27T01:48:50.776Z,97655.53
2022-09-27T01:51:28.124Z,97663.63
2022-09-27T01:54:01.142Z,97658.34
2022-09-27T01:56:32.347Z,97655.84
2022-09-27T01:59:07.502Z,97657.19
2022-09-27T02:01:38.581Z,97654.00
2022-09-27T02:04:08.816Z,97672.69
2022-09-27T02:06:40.057Z,97662.28
2022-09-27T02:09:12.224Z,97666.06
2022-09-27T02:11:43.484Z,97667.69
2022-09-27T02:14:20.029Z,97664.56
2022-09-27T02:16:51.783Z,97668.00
2022-09-27T02:19:30.996Z,97662.06
2022-09-27T02:22:18.813Z,97670.59
2022-09-27T02:24:53.342Z,97663.50
2022-09-27T02:27:29.616Z,97671.59
2022-09-27T02:30:06.165Z,97663.81
2022-09-27T02:32:33.555Z,97672.56
2022-09-27T02:35:06.014Z,97665.78
2022-09-27T02:37:33.428Z,97663.31
2022-09-27T02:40:00.765Z,97660.81
2022-09-27T02:42:28.474Z,97664.59
2022-09-27T02:44:55.104Z,97669.19
2022-09-27T02:47:41.062Z,97667.03
2022-09-27T02:50:25.687Z,97673.97
2022-09-27T02:53:11.472Z,97670.81
2022-09-27T02:55:52.233Z,97674.75
2022-09-27T02:58:45.107Z,97664.63
2022-09-27T03:01:48.920Z,97664.78
2022-09-27T03:04:25.685Z,97665.09
2022-09-27T03:06:53.760Z,97665.78
2022-09-27T03:09:21.524Z,97665.09
2022-09-27T03:11:48.298Z,97659.13
2022-09-27T03:14:15.276Z,97664.56
2022-09-27T03:16:41.834Z,97661.91
2022-09-27T03:19:09.768Z,97668.19
2022-09-27T03:21:36.347Z,97661.25
2022-09-27T03:24:03.471Z,97670.16
2022-09-27T03:26:29.994Z,97672.97
2022-09-27T03:28:56.519Z,97673.91
2022-09-27T03:31:23.029Z,97671.28
2022-09-27T03:33:49.598Z,97678.53
2022-09-27T03:36:16.201Z,97675.22
2022-09-27T03:38:42.718Z,97671.75
2022-09-27T03:41:09.384Z,97673.88
2022-09-27T03:43:36.082Z,97680.25
2022-09-27T03:46:02.631Z,97673.47
2022-09-27T03:48:31.215Z,97676.28
2022-09-27T03:50:57.774Z,97674.63
2022-09-27T03:53:24.744Z,97677.41
2022-09-27T03:55:51.256Z,97682.00
2022-09-27T03:58:17.764Z,97679.38
2022-09-27T04:00:46.269Z,97680.66
2022-09-27T04:03:13.563Z,97679.00
2022-09-27T04:05:40.137Z,97685.28
2022-09-27T04:08:07.950Z,97681.09
2022-09-27T04:10:34.495Z,97683.91
2022-09-27T04:13:01.049Z,97681.41
2022-09-27T04:15:27.642Z,97679.72
2022-09-27T04:17:54.179Z,97675.44
2022-09-27T04:20:20.732Z,97674.78
2022-09-27T04:22:47.335Z,97673.13
2022-09-27T04:25:13.957Z,97676.72
2022-09-27T04:27:45.795Z,97686.75
2022-09-27T04:30:13.493Z,97696.59
2022-09-27T04:32:44.854Z,97705.81
2022-09-27T04:35:31.506Z,97712.06
2022-09-27T04:37:58.471Z,97703.47
2022-09-27T04:40:25.470Z,97706.25
2022-09-27T04:42:52.292Z,97709.03
2022-09-27T04:45:19.699Z,97715.31
2022-09-27T04:47:50.297Z,97718.09
2022-09-27T04:50:18.352Z,97719.06
2022-09-27T04:52:44.909Z,97715.59
2022-09-27T04:55:11.455Z,97728.78
2022-09-27T04:57:38.042Z,97714.03
2022-09-27T05:00:05.285Z,97718.47
2022-09-27T05:02:32.043Z,97716.03
2022-09-27T05:04:59.288Z,97724.06
2022-09-27T05:07:27.123Z,97728.66
2022-09-27T05:09:54.017Z,97730.63
2022-09-27T05:12:21.170Z,97733.25
2022-09-27T05:14:48.085Z,97739.50
2022-09-27T05:17:14.790Z,97739.66
2022-09-27T05:19:41.280Z,97742.28
2022-09-27T05:22:08.121Z,97737.16
2022-09-27T05:24:34.811Z,97745.22
2022-09-27T05:27:01.965Z,97744.50
2022-09-27T05:29:29.053Z,97741.06
2022-09-27T05:31:55.542Z,97745.63
2022-09-27T05:34:22.475Z,97749.41
2022-09-27T05:36:49.911Z,97741.63
2022-09-27T05:39:17.363Z,97737.34
2022-09-27T05:41:44.232Z,97749.00
2022-09-27T05:44:10.827Z,97752.75
2022-09-27T05:46:39.122Z,97750.53
2022-09-27T05:49:06.165Z,97752.66
2022-09-27T05:51:32.728Z,97752.13
2022-09-27T05:53:59.522Z,97766.41
2022-09-27T05:56:26.398Z,97768.34
2022-09-27T05:58:52.935Z,97761.69
2022-09-27T06:01:19.520Z,97776.69
2022-09-27T06:03:47.277Z,97768.78
2022-09-27T06:06:15.629Z,97776.84
2022-09-27T06:08:42.196Z,97760.88
2022-09-27T06:11:12.484Z,97768.78
2022-09-27T06:13:39.650Z,97768.50
2022-09-27T06:16:07.512Z,97771.97
2022-09-27T06:18:34.515Z,97772.63
2022-09-27T06:21:02.487Z,97771.69
2022-09-27T06:23:32.655Z,97779.44
2022-09-27T06:26:04.975Z,97772.50
2022-09-27T06:28:32.662Z,97767.94
2022-09-27T06:31:02.099Z,97778.34
2022-09-27T06:33:28.798Z,97775.69
2022-09-27T06:35:55.626Z,97785.25
2022-09-27T06:38:23.174Z,97780.81
2022-09-27T06:40:49.736Z,97789.41
2022-09-27T06:43:19.894Z,97790.25
2022-09-27T06:45:47.356Z,97789.13
2022-09-27T06:48:16.167Z,97795.91
2022-09-27T06:50:44.602Z,97799.09
2022-09-27T06:53:13.730Z,97804.22
2022-09-27T06:55:40.971Z,97817.94
2022-09-27T06:58:28.936Z,97809.75
2022-09-27T07:00:55.486Z,97809.47
2022-09-27T07:03:23.981Z,97821.53
2022-09-27T07:05:59.105Z,97825.94
2022-09-27T07:08:28.786Z,97830.66
2022-09-27T07:11:01.008Z,97826.91
2022-09-27T07:13:29.769Z,97830.94
2022-09-27T07:15:56.251Z,97820.09
2022-09-27T07:18:22.860Z,97830.34
2022-09-27T07:20:50.853Z,97834.38
2022-09-27T07:23:17.438Z,97832.13
2022-09-27T07:25:43.991Z,97837.78
2022-09-27T07:28:21.004Z,97832.91
2022-09-27T07:30:48.838Z,97837.59
2022-09-27T07:33:15.609Z,97846.59
2022-09-27T07:35:43.775Z,97845.31
2022-09-27T07:38:14.109Z,97847.66
2022-09-27T07:40:45.237Z,97849.34
2022-09-27T07:43:12.438Z,97854.00
2022-09-27T07:45:39.058Z,97849.13
2022-09-27T07:48:07.377Z,97860.06
2022-09-27T07:50:34.181Z,97855.00
2022-09-27T07:53:00.993Z,97856.94
2022-09-27T07:55:27.566Z,97865.88
2022-09-27T07:58:03.813Z,97869.59
2022-09-27T08:00:30.581Z,97870.06
2022-09-27T08:02:57.188Z,97878.91
2022-09-27T08:05:23.769Z,97878.28
2022-09-27T08:07:55.619Z,97884.94
2022-09-27T08:10:22.098Z,97874.88
2022-09-27T08:12:48.611Z,97869.59
2022-09-27T08:15:15.244Z,97879.34
2022-09-27T08:17:42.204Z,97878.50
2022-09-27T08:20:09.233Z,97885.78
2022-09-27T08:22:40.973Z,97893.16
2022-09-27T08:25:07.925Z,97893.31
2022-09-27T08:27:34.459Z,97890.69
2022-09-27T08:30:00.928Z,97896.94
2022-09-27T08:32:28.841Z,97897.78
2022-09-27T08:34:55.338Z,97903.72
2022-09-27T08:37:21.834Z,97905.25
2022-09-27T08:39:48.436Z,97901.47
2022-09-27T08:42:24.165Z,97913.41
2022-09-27T08:45:17.744Z,97907.81
2022-09-27T08:47:55.233Z,97907.75
2022-09-27T08:50:39.016Z,97907.53
2022-09-27T08:53:25.319Z,97915.81
2022-09-27T08:55:54.921Z,97913.91
2022-09-27T08:58:28.605Z,97912.47
2022-09-27T09:01:01.648Z,97909.53
2022-09-27T09:03:29.444Z,97916.47
2022-09-27T09:06:05.042Z,97911.84
2022-09-27T09:08:42.948Z,97916.97
2022-09-27T09:11:57.425Z,97908.53
2022-09-27T09:14:49.002Z,97912.69
2022-09-27T09:17:34.061Z,97907.09
2022-09-27T09:20:21.920Z,97912.69
2022-09-27T09:23:19.072Z,97907.09
2022-09-27T09:25:56.957Z,97903.00
2022-09-27T09:28:40.640Z,97902.81
2022-09-27T09:31:24.061Z,97904.56
2022-09-27T09:34:10.247Z,97900.75
2022-09-27T09:36:58.989Z,97898.16
2022-09-27T09:40:08.886Z,97897.38
2022-09-27T09:42:40.346Z,97901.72
2022-09-27T09:45:21.180Z,97901.56
2022-09-27T09:47:54.837Z,97902.75
2022-09-27T09:50:32.845Z,97902.75
2022-09-27T09:53:29.569Z,97901.59
2022-09-27T09:56:02.640Z,97902.41
2022-09-27T09:58:36.912Z,97899.75
2022-09-27T10:01:20.044Z,97893.50
2022-09-27T10:03:46.979Z,97901.09
2022-09-27T10:06:15.983Z,97903.94
2022-09-27T10:08:42.907Z,97904.59
2022-09-27T10:11:20.312Z,97897.66
2022-09-27T10:13:47.556Z,97899.16
2022-09-27T10:16:17.225Z,97894.84
2022-09-27T10:18:49.694Z,97887.88
2022-09-27T10:21:28.113Z,97888.22
2022-09-27T10:24:18.429Z,97893.84
2022-09-27T10:26:48.503Z,97896.03
2022-09-27T10:29:20.938Z,97885.50
2022-09-27T10:31:49.158Z,97887.03
2022-09-27T10:34:21.566Z,97891.53
2022-09-27T10:37:02.786Z,97889.56
2022-09-27T10:39:29.297Z,97889.44
2022-09-27T10:41:55.821Z,97885.97
2022-09-27T10:44:32.620Z,97884.81
2022-09-27T10:47:07.588Z,97886.44
2022-09-27T10:49:40.131Z,97877.13
2022-09-27T10:52:16.035Z,97878.41
2022-09-27T10:54:52.107Z,97885.47
2022-09-27T10:57:21.783Z,97880.50
2022-09-27T10:59:54.926Z,97887.78
2022-09-27T11:02:29.780Z,97887.19
2022-09-27T11:05:15.341Z,97891.38
2022-09-27T11:07:53.478Z,97890.06
2022-09-27T11:10:37.379Z,97878.94
2022-09-27T11:13:19.517Z,97882.53
2022-09-27T11:16:17.475Z,97875.00
2022-09-27T11:18:54.847Z,97874.28
2022-09-27T11:21:48.183Z,97882.72
2022-09-27T11:24:20.842Z,97873.41
2022-09-27T11:26:50.373Z,97881.22
2022-09-27T11:29:41.796Z,97882.66
2022-09-27T11:32:35.530Z,97874.41
2022-09-27T11:35:26.859Z,97878.44
2022-09-27T11:38:48.120Z,97884.53
2022-09-27T11:41:35.238Z,97877.59
2022-09-27T11:44:32.810Z,97883.00
2022-09-27T11:47:17.114Z,97891.22
2022-09-27T11:50:18.732Z,97891.38
2022-09-27T11:53:15.138Z,97904.06
2022-09-27T11:55:47.247Z,97894.50
2022-09-27T11:58:26.407Z,97896.69
2022-09-27T12:00:56.851Z,97904.84
2022-09-27T12:04:01.067Z,97897.03
2022-09-27T12:06:36.805Z,97898.34
2022-09-27T12:09:03.275Z,97895.22
2022-09-27T12:11:41.463Z,97893.88
2022-09-27T12:14:24.629Z,97900.84
2022-09-27T12:16:55.641Z,97891.91
2022-09-27T12:19:30.506Z,97902.03
2022-09-27T12:22:01.038Z,97898.38
2022-09-27T12:24:28.328Z,97914.44
2022-09-27T12:27:00.318Z,97911.09
2022-09-27T12:29:33.954Z,97905.25
2022-09-27T12:32:13.629Z,97903.06
2022-09-27T12:34:51.891Z,97900.16
2022-09-27T12:37:28.182Z,97906.34
2022-09-27T12:40:06.386Z,97903.25
2022-09-27T12:42:39.347Z,97903.69
2022-09-27T12:45:10.919Z,97905.53
2022-09-27T12:48:16.425Z,97904.91
2022-09-27T12:51:10.553Z,97908.63
2022-09-27T12:53:55.492Z,97905.31
2022-09-27T12:56:58.088Z,97906.03
2022-09-27T12:59:46.278Z,97901.25
2022-09-27T13:03:04.047Z,97912.38
2022-09-27T13:05:41.567Z,97901.13
2022-09-27T13:08:30.005Z,97907.94
2022-09-27T13:11:23.498Z,97897.66
2022-09-27T13:13:54.434Z,97902.16
2022-09-27T13:16:20.951Z,97900.16
2022-09-27T13:18:56.283Z,97899.53
2022-09-27T13:21:51.140Z,97903.88
2022-09-27T13:24:31.253Z,97900.06
2022-09-27T13:27:01.550Z,97905.38
2022-09-27T13:29:31.761Z,97906.91
2022-09-27T13:31:58.619Z,97906.41
2022-09-27T13:34:40.941Z,97910.25
2022-09-27T13:37:29.208Z,97926.19
2022-09-27T13:40:22.525Z,97932.53
2022-09-27T13:43:17.732Z,97942.97
2022-09-27T13:45:57.713Z,97940.16
2022-09-27T13:48:30.641Z,97931.81
2022-09-27T13:51:14.676Z,97933.88
2022-09-27T13:53:46.658Z,97932.38
2022-09-27T13:56:48.283Z,97921.25
2022-09-27T13:59:21.029Z,97932.47
2022-09-27T14:01:53.169Z,97934.47
2022-09-27T14:04:28.397Z,97928.34
2022-09-27T14:07:00.405Z,97933.00
2022-09-27T14:09:33.763Z,97931.28
2022-09-27T14:12:05.399Z,97934.25
2022-09-27T14:14:33.480Z,97929.25
2022-09-27T14:17:01.343Z,97933.53
2022-09-27T14:19:29.071Z,97933.91
2022-09-27T14:21:56.888Z,97935.97
2022-09-27T14:24:33.417Z,97938.84
2022-09-27T14:27:38.266Z,97933.19
2022-09-27T14:30:16.070Z,97934.47
2022-09-27T14:32:51.330Z,97928.78
2022-09-27T14:35:37.679Z,97930.59
2022-09-27T14:38:33.081Z,97936.97
2022-09-27T14:40:58.573Z,97936.75
2022-09-27T14:43:26.135Z,97928.06
2022-09-27T14:45:57.971Z,97927.00
2022-09-27T14:48:28.932Z,97937.19
2022-09-27T14:51:06.203Z,97929.81
2022-09-27T14:53:41.183Z,97934.81
2022-09-27T14:56:16.255Z,97936.97
2022-09-27T14:58:47.784Z,97933.34
2022-09-27T15:01:17.247Z,97937.69
2022-09-27T15:03:45.711Z,97939.16
2022-09-27T15:06:12.902Z,97934.69
2022-09-27T15:08:40.253Z,97932.16
2022-09-27T15:11:08.097Z,97925.38
2022-09-27T15:13:37.542Z,97932.94
2022-09-27T15:16:11.151Z,97937.03
2022-09-27T15:18:37.631Z,97932.03
2022-09-27T15:21:05.862Z,97941.22
2022-09-27T15:23:43.520Z,97944.16
2022-09-27T15:26:09.992Z,97945.47
2022-09-27T15:28:39.353Z,97946.06
2022-09-27T15:31:08.177Z,97946.56
2022-09-27T15:33:35.862Z,97954.66
2022-09-27T15:36:09.048Z,97951.66
2022-09-27T15:38:44.232Z,97951.94
2022-09-27T15:41:21.140Z,97949.78
2022-09-27T15:43:50.207Z,97957.03
2022-09-27T15:46:22.980Z,97954.88
2022-09-27T15:49:17.875Z,97964.56
2022-09-27T15:51:46.391Z,97962.75
2022-09-27T15:54:12.988Z,97951.63
2022-09-27T15:56:40.061Z,97962.56
2022-09-27T15:59:14.087Z,97961.84
2022-09-27T16:01:40.674Z,97956.88
2022-09-27T16:04:09.115Z,97953.56
2022-09-27T16:06:35.801Z,97960.66
2022-09-27T16:09:02.307Z,97958.34
2022-09-27T16:11:28.825Z,97961.94
2022-09-27T16:13:55.334Z,97954.00
2022-09-27T16:16:22.840Z,97958.63
2022-09-27T16:18:49.670Z,97960.44
2022-09-27T16:21:16.472Z,97955.47
2022-09-27T16:23:43.048Z,97967.16
2022-09-27T16:26:09.549Z,97953.28
2022-09-27T16:28:36.152Z,97959.56
2022-09-27T16:31:04.938Z,97960.50
2022-09-27T16:33:32.785Z,97963.16
2022-09-27T16:36:01.431Z,97966.78
2022-09-27T16:38:30.356Z,97961.66
2022-09-27T16:41:02.301Z,97958.34
2022-09-27T16:43:30.280Z,97961.84
2022-09-27T16:46:04.471Z,97963.28
2022-09-27T16:48:30.962Z,97966.72
2022-09-27T16:51:25.718Z,97965.53
2022-09-27T16:53:52.266Z,97969.84
2022-09-27T16:56:20.219Z,97959.56
2022-09-27T16:58:48.007Z,97959.84
2022-09-27T17:01:16.840Z,97961.00
2022-09-27T17:03:45.442Z,97962.13
2022-09-27T17:06:11.921Z,97962.41
2022-09-27T17:08:38.520Z,97958.28
2022-09-27T17:11:06.447Z,97965.50
2022-09-27T17:13:33.753Z,97960.50
2022-09-27T17:16:04.233Z,97963.63
2022-09-27T17:18:30.903Z,97959.28
2022-09-27T17:21:03.394Z,97962.41
2022-09-27T17:23:31.409Z,97952.81
2022-09-27T17:26:05.557Z,97951.59
2022-09-27T17:28:32.132Z,97958.69
2022-09-27T17:31:10.011Z,97953.16
2022-09-27T17:33:43.416Z,97955.94
2022-09-27T17:36:17.407Z,97951.13
2022-09-27T17:38:45.244Z,97963.50
2022-09-27T17:41:14.805Z,97962.13
2022-09-27T17:43:50.246Z,97959.63
2022-09-27T17:46:19.152Z,97958.13
2022-09-27T17:49:05.197Z,97960.91
2022-09-27T17:51:33.203Z,97964.53
2022-09-27T17:54:00.218Z,97953.44
2022-09-27T17:56:27.121Z,97957.03
2022-09-27T17:58:56.116Z,97953.88
2022-09-27T18:01:24.633Z,97955.84
2022-09-27T18:04:00.698Z,97950.16
2022-09-27T18:06:28.360Z,97947.50
2022-09-27T18:08:55.984Z,97949.63
2022-09-27T18:11:28.510Z,97950.91
2022-09-27T18:13:58.745Z,97950.38
2022-09-27T18:16:29.653Z,97946.22
2022-09-27T18:18:58.055Z,97942.06
2022-09-27T18:21:26.815Z,97946.63
2022-09-27T18:23:56.647Z,97945.13
2022-09-27T18:26:24.195Z,97951.38
2022-09-27T18:28:56.021Z,97955.97
2022-09-27T18:31:23.617Z,97947.09
2022-09-27T18:33:50.586Z,97954.16
2022-09-27T18:36:19.055Z,97956.09
2022-09-27T18:38:46.991Z,97948.34
2022-09-27T18:41:16.094Z,97951.13
2022-09-27T18:43:44.809Z,97955.56
2022-09-27T18:46:34.532Z,97952.25
2022-09-27T18:49:02.361Z,97947.94
2022-09-27T18:51:29.235Z,97947.25
2022-09-27T18:54:03.965Z,97944.09
2022-09-27T18:56:31.174Z,97949.19
2022-09-27T18:58:57.932Z,97941.47
2022-09-27T19:01:28.123Z,97943.53
2022-09-27T19:03:54.671Z,97943.66
2022-09-27T19:06:23.580Z,97945.78
2022-09-27T19:08:58.792Z,97944.41
2022-09-27T19:11:26.779Z,97938.28
2022-09-27T19:13:55.347Z,97949.13
2022-09-27T19:16:23.490Z,97956.34
2022-09-27T19:18:50.822Z,97951.22
2022-09-27T19:21:20.504Z,97954.16
2022-09-27T19:23:48.862Z,97945.53
2022-09-27T19:26:18.482Z,97938.06
2022-09-27T19:28:46.537Z,97940.16
2022-09-27T19:31:16.322Z,97943.91
2022-09-27T19:33:43.323Z,97940.72
2022-09-27T19:36:12.147Z,97940.00
2022-09-27T19:38:39.413Z,97934.03
2022-09-27T19:41:08.240Z,97941.25
2022-09-27T19:43:35.116Z,97931.81
2022-09-27T19:46:09.099Z,97943.47
2022-09-27T19:48:37.005Z,97935.56
2022-09-27T19:51:04.098Z,97927.81
2022-09-27T19:53:32.419Z,97933.38
2022-09-27T19:56:04.394Z,97939.75
2022-09-27T19:58:32.487Z,97933.78
2022-09-27T20:01:10.033Z,97927.97
2022-09-27T20:03:39.062Z,97931.44
2022-09-27T20:06:07.749Z,97935.03
2022-09-27T20:08:34.843Z,97934.38
2022-09-27T20:11:10.049Z,97925.88
2022-09-27T20:13:37.822Z,97924.78
2022-09-27T20:16:15.782Z,97923.41
2022-09-27T20:18:47.498Z,97916.31
2022-09-27T20:21:14.986Z,97919.94
2022-09-27T20:23:42.172Z,97920.06
2022-09-27T20:26:13.995Z,97924.66
2022-09-27T20:28:42.910Z,97920.34
2022-09-27T20:31:13.196Z,97920.34
2022-09-27T20:33:42.688Z,97920.34
2022-09-27T20:36:37.332Z,97918.97
2022-09-27T20:39:12.187Z,97917.84
2022-09-27T20:41:43.609Z,97917.84
2022-09-27T20:44:18.375Z,97911.75
2022-09-27T20:46:46.215Z,97911.75
2022-09-27T20:49:16.036Z,97909.13
2022-09-27T20:51:44.195Z,97901.22
2022-09-27T20:54:12.672Z,97909.81
2022-09-27T20:56:44.545Z,97907.31
2022-09-27T20:59:22.343Z,97909.13
2022-09-27T21:01:51.354Z,97901.91
2022-09-27T21:04:19.238Z,97893.19
2022-09-27T21:06:46.051Z,97894.00
2022-09-27T21:09:18.731Z,97900.25
2022-09-27T21:11:51.771Z,97895.94
2022-09-27T21:14:18.554Z,97894.13
2022-09-27T21:16:45.296Z,97889.69
2022-09-27T21:19:11.876Z,97890.53
2022-09-27T21:21:38.387Z,97892.34
2022-09-27T21:24:05.336Z,97891.50
2022-09-27T21:26:33.351Z,97889.56
2022-09-27T21:29:01.581Z,97888.72
2022-09-27T21:31:32.468Z,97881.50
2022-09-27T21:34:01.132Z,97884.69
2022-09-27T21:36:30.251Z,97885.41
2022-09-27T21:38:57.227Z,97884.13
2022-09-27T21:41:24.208Z,97884.81
2022-09-27T21:43:50.828Z,97879.53
2022-09-27T21:46:28.438Z,97876.38
2022-09-27T21:48:57.499Z,97878.69
2022-09-27T21:51:29.754Z,97877.03
2022-09-27T21:53:59.055Z,97879.69
2022-09-27T21:56:27.945Z,97876.22
2022-09-27T21:58:54.447Z,97871.78
2022-09-27T22:01:23.492Z,97883.97
2022-09-27T22:03:52.011Z,97875.13
2022-09-27T22:06:29.291Z,97875.78
2022-09-27T22:08:56.817Z,97878.16
2022-09-27T22:11:26.104Z,97873.56
2022-09-27T22:13:52.873Z,97877.03
2022-09-27T22:16:20.958Z,97873.56
2022-09-27T22:18:49.888Z,97872.59
2022-09-27T22:21:19.927Z,97870.09
2022-09-27T22:23:46.480Z,97865.63
2022-09-27T22:26:17.048Z,97864.13
2022-09-27T22:28:45.135Z,97877.44
2022-09-27T22:31:15.238Z,97867.88
2022-09-27T22:33:42.958Z,97868.16
2022-09-27T22:36:09.470Z,97864.84
2022-09-27T22:38:36.056Z,97862.34
2022-09-27T22:41:03.540Z,97864.00
2022-09-27T22:43:30.699Z,97857.78
2022-09-27T22:46:00.220Z,97855.97
2022-09-27T22:48:31.147Z,97852.34
2022-09-27T22:50:58.936Z,97848.44
2022-09-27T22:53:26.912Z,97840.41
2022-09-27T22:56:04.101Z,97847.31
2022-09-27T22:58:31.621Z,97833.72
2022-09-27T23:00:58.138Z,97840.50
2022-09-27T23:03:24.918Z,97835.94
2022-09-27T23:05:51.471Z,97827.06
2022-09-27T23:08:17.996Z,97833.00
2022-09-27T23:10:44.480Z,97818.69
2022-09-27T23:13:11.011Z,97820.41
2022-09-27T23:15:37.555Z,97819.41
2022-09-27T23:18:06.285Z,97813.16
2022-09-27T23:20:32.786Z,97814.66
2022-09-27T23:22:59.332Z,97807.59
2022-09-27T23:25:26.009Z,97800.50
2022-09-27T23:27:53.467Z,97800.38
2022-09-27T23:30:21.599Z,97808.28
2022-09-27T23:32:55.644Z,97803.16
2022-09-27T23:35:23.144Z,97803.00
2022-09-27T23:37:52.886Z,97807.59
2022-09-27T23:40:19.427Z,97803.16
2022-09-27T23:42:45.951Z,97802.34
2022-09-27T23:45:14.237Z,97796.34
2022-09-27T23:47:40.745Z,97802.63
2022-09-27T23:50:08.206Z,97789.56
2022-09-27T23:52:34.721Z,97796.78
2022-09-27T23:55:01.194Z,97789.00
2022-09-27T23:57:27.699Z,97786.66
2022-09-27T23:59:54.173Z,97791.25
